Time;durP1;ratioP1;P1;durP2;ratioP2;P2;SDS_P1;SDS_P2;PMS_P1;PMS_P2;Temp;Humidity;BMP_temperature;BMP_pressure;BME280_temperature;BME280_humidity;BME280_pressure;Samples;Min_cycle;Max_cycle;Signal;HPM_P1;HPM_P2
2023/07/01 00:01:04;;;;;;;5.18;3.37;;;;;;;26.46;40.20;98951.84;4375909;32;34152;-72
2023/07/01 00:03:32;;;;;;;5.50;3.22;;;;;;;26.44;40.28;98945.84;4375715;32;33583;-72
2023/07/01 00:06:03;;;;;;;6.85;3.90;;;;;;;26.43;40.30;98945.00;4375788;32;33881;-73
2023/07/01 00:08:30;;;;;;;5.70;3.60;;;;;;;26.43;40.34;98946.91;4375555;32;34830;-71
2023/07/01 00:10:59;;;;;;;6.18;3.83;;;;;;;26.41;40.36;98949.87;4375557;32;34146;-71
2023/07/01 00:13:27;;;;;;;6.20;3.92;;;;;;;26.41;40.38;98947.16;4375404;32;33173;-68
2023/07/01 00:15:55;;;;;;;6.03;3.90;;;;;;;26.40;40.38;98941.97;4375480;32;34698;-73
2023/07/01 00:18:24;;;;;;;5.72;3.62;;;;;;;26.38;40.41;98941.37;4362075;32;33904;-71
2023/07/01 00:20:51;;;;;;;7.87;3.70;;;;;;;26.36;40.44;98947.13;4361527;32;34244;-72
2023/07/01 00:23:19;;;;;;;5.35;3.60;;;;;;;26.37;40.45;98945.22;4377268;32;34482;-72
2023/07/01 00:25:47;;;;;;;6.22;3.80;;;;;;;26.35;40.48;98944.66;4377688;32;33472;-72
2023/07/01 00:28:14;;;;;;;5.07;3.47;;;;;;;26.33;40.50;98942.19;4377706;32;34012;-71
2023/07/01 00:30:42;;;;;;;5.85;3.47;;;;;;;26.32;40.54;98940.53;4377589;32;34860;-71
2023/07/01 00:33:09;;;;;;;5.78;3.85;;;;;;;26.32;40.54;98939.72;4377799;32;33945;-71
2023/07/01 00:35:37;;;;;;;7.65;3.50;;;;;;;26.31;40.51;98935.34;4377375;32;33962;-69
2023/07/01 00:38:05;;;;;;;5.12;3.28;;;;;;;26.31;40.47;98940.81;4377543;32;34127;-64
2023/07/01 00:40:32;;;;;;;5.25;3.72;;;;;;;26.30;40.43;98936.41;4377478;32;33927;-70
2023/07/01 00:43:00;;;;;;;6.15;3.95;;;;;;;26.29;40.38;98937.50;4377236;32;33807;-63
2023/07/01 00:45:27;;;;;;;5.22;3.37;;;;;;;26.28;40.35;98935.88;4377493;32;33700;-63
2023/07/01 00:47:55;;;;;;;5.15;3.70;;;;;;;26.26;40.34;98927.94;4377521;32;33829;-63
2023/07/01 00:50:23;;;;;;;4.70;3.20;;;;;;;26.25;40.33;98926.28;4363741;32;33965;-63
2023/07/01 00:52:51;;;;;;;6.78;4.15;;;;;;;26.24;40.29;98924.63;4363911;32;33187;-64
2023/07/01 00:55:18;;;;;;;5.70;3.42;;;;;;;26.23;40.29;98925.72;4364042;32;33959;-63
2023/07/01 00:57:46;;;;;;;6.50;3.95;;;;;;;26.22;40.26;98926.81;4377365;32;34639;-66
2023/07/01 01:00:14;;;;;;;8.38;4.00;;;;;;;26.19;40.26;98919.97;4377352;32;34197;-64
2023/07/01 01:03:20;;;;;;;6.53;3.87;;;;;;;26.20;40.27;98918.06;4363788;32;34319;-69
2023/07/01 01:06:16;;;;;;;5.15;3.67;;;;;;;26.23;40.24;98919.44;4376272;32;34586;-64
2023/07/01 01:09:10;;;;;;;6.82;3.90;;;;;;;26.21;40.26;98911.50;4365834;32;33599;-71
2023/07/01 01:11:40;;;;;;;4.80;3.55;;;;;;;26.19;40.31;98906.28;4364302;32;34057;-72
2023/07/01 01:14:09;;;;;;;7.28;4.05;;;;;;;26.14;40.36;98903.53;4363768;32;34381;-63
2023/07/01 01:16:38;;;;;;;6.10;3.90;;;;;;;26.14;40.37;98900.81;4351452;32;33858;-68
2023/07/01 01:19:10;;;;;;;6.12;3.97;;;;;;;26.12;40.38;98900.25;4363762;32;34680;-63
2023/07/01 01:21:38;;;;;;;6.93;3.78;;;;;;;26.12;40.39;98889.31;4353752;32;34172;-63
2023/07/01 01:24:06;;;;;;;6.62;4.05;;;;;;;26.11;40.39;98898.63;4348820;32;33183;-63
2023/07/01 01:26:38;;;;;;;6.28;3.83;;;;;;;26.10;40.40;98893.41;4348871;32;33827;-63
2023/07/01 01:29:06;;;;;;;7.43;4.12;;;;;;;26.09;40.42;98889.84;4349019;32;33849;-63
2023/07/01 01:31:34;;;;;;;6.80;3.97;;;;;;;26.08;40.41;98893.69;4336043;32;34354;-71
2023/07/01 01:34:02;;;;;;;5.47;3.70;;;;;;;26.08;40.42;98899.16;4347767;32;34275;-71
2023/07/01 01:36:31;;;;;;;5.87;4.20;;;;;;;26.06;40.42;98893.09;4362109;32;33842;-71
2023/07/01 01:39:05;;;;;;;7.80;4.37;;;;;;;26.05;40.44;98890.66;4348513;32;35448;-70
2023/07/01 01:41:43;;;;;;;13.82;4.15;;;;;;;26.05;40.42;98894.19;4337353;32;34179;-71
2023/07/01 01:44:14;;;;;;;5.82;4.20;;;;;;;26.03;40.37;98896.37;4337421;32;34025;-72
2023/07/01 01:46:43;;;;;;;5.68;4.10;;;;;;;26.03;40.39;98893.66;4348713;32;34807;-71
2023/07/01 01:49:11;;;;;;;5.82;3.78;;;;;;;26.02;40.37;98894.75;4336777;32;34149;-69
2023/07/01 01:51:40;;;;;;;7.12;4.03;;;;;;;26.02;40.37;98893.91;4348839;32;34012;-68
2023/07/01 01:54:09;;;;;;;8.45;4.18;;;;;;;26.02;40.35;98889.28;4348775;32;33678;-73
2023/07/01 01:56:37;;;;;;;5.93;3.95;;;;;;;25.99;40.37;98889.81;4361962;32;34092;-73
2023/07/01 01:59:04;;;;;;;5.62;3.62;;;;;;;25.99;40.34;98889.81;4336723;32;33969;-72
2023/07/01 02:01:33;;;;;;;8.52;4.30;;;;;;;25.99;40.32;98894.44;4348875;32;34821;-70
2023/07/01 02:04:01;;;;;;;5.95;3.83;;;;;;;25.97;40.34;98886.50;4362039;32;34425;-71
2023/07/01 02:06:29;;;;;;;5.93;3.92;;;;;;;25.98;40.30;98888.16;4362056;32;33513;-72
2023/07/01 02:08:57;;;;;;;6.12;3.65;;;;;;;25.96;40.32;98887.59;4362155;32;33871;-72
2023/07/01 02:11:25;;;;;;;6.87;4.12;;;;;;;25.94;40.32;98896.06;4361916;32;33946;-72
2023/07/01 02:13:52;;;;;;;6.45;3.70;;;;;;;25.95;40.32;98888.69;4362046;32;34376;-71
2023/07/01 02:16:20;;;;;;;6.43;4.10;;;;;;;25.92;40.34;98884.56;4362209;32;33916;-71
2023/07/01 02:18:48;;;;;;;5.22;3.60;;;;;;;25.91;40.34;98880.19;4361921;32;33608;-70
2023/07/01 02:21:15;;;;;;;5.87;4.03;;;;;;;25.92;40.34;98884.56;4369341;32;34328;-67
2023/07/01 02:23:43;;;;;;;7.18;4.28;;;;;;;25.91;40.38;98899.31;4376798;32;33637;-72
2023/07/01 02:26:11;;;;;;;7.85;4.22;;;;;;;25.89;40.37;98882.38;4376729;32;34941;-64
2023/07/01 02:28:38;;;;;;;6.07;4.37;;;;;;;25.89;40.41;98892.47;4377102;32;33629;-66
2023/07/01 02:31:06;;;;;;;6.28;4.20;;;;;;;25.89;40.43;98895.22;4376899;32;34074;-63
2023/07/01 02:33:34;;;;;;;5.70;3.97;;;;;;;25.87;40.42;98891.91;4376996;32;33561;-63
2023/07/01 02:36:01;;;;;;;6.18;4.30;;;;;;;25.88;40.38;98890.81;4363317;32;33661;-63
2023/07/01 02:38:29;;;;;;;6.25;4.40;;;;;;;25.88;40.41;98891.66;4376118;32;34233;-70
2023/07/01 02:40:57;;;;;;;7.47;4.18;;;;;;;25.86;40.48;98884.81;4370425;32;34204;-65
2023/07/01 02:43:24;;;;;;;5.80;4.05;;;;;;;25.86;40.45;98884.81;4370522;32;34359;-63
2023/07/01 02:45:52;;;;;;;6.95;4.28;;;;;;;25.86;40.44;98882.06;4365281;32;33798;-63
2023/07/01 02:48:20;;;;;;;7.30;4.37;;;;;;;25.86;40.42;98873.87;4351039;32;34075;-63
2023/07/01 02:50:48;;;;;;;6.90;4.32;;;;;;;25.83;40.46;98875.22;4371485;32;34030;-64
2023/07/01 02:53:17;;;;;;;6.35;4.25;;;;;;;25.82;40.45;98880.94;4361487;32;33669;-63
2023/07/01 02:55:45;;;;;;;6.95;4.05;;;;;;;25.83;40.44;98882.59;4361668;32;33600;-65
2023/07/01 02:58:13;;;;;;;5.95;4.45;;;;;;;25.83;40.43;98893.53;4361981;32;33696;-63
2023/07/01 03:00:40;;;;;;;6.05;4.10;;;;;;;25.83;40.44;98893.53;4361381;32;34790;-64
2023/07/01 03:03:08;;;;;;;7.45;4.37;;;;;;;25.81;40.43;98896.53;4368029;32;33371;-63
2023/07/01 03:05:36;;;;;;;6.40;4.57;;;;;;;25.80;40.43;98889.41;4376532;32;34090;-64
2023/07/01 03:08:04;;;;;;;6.72;4.10;;;;;;;25.80;40.42;98891.34;4350821;32;33989;-63
2023/07/01 03:10:32;;;;;;;7.85;4.30;;;;;;;25.79;40.44;98893.25;4376443;32;34144;-70
2023/07/01 03:13:00;;;;;;;7.80;4.18;;;;;;;25.78;40.47;98891.56;4376424;32;33572;-65
2023/07/01 03:15:27;;;;;;;6.93;4.53;;;;;;;25.78;40.48;98886.13;4362682;32;33646;-64
2023/07/01 03:17:55;;;;;;;7.47;3.90;;;;;;;25.79;40.49;98884.22;4362867;32;33610;-65
2023/07/01 03:20:23;;;;;;;6.75;4.28;;;;;;;25.78;40.48;98888.03;4376430;32;34511;-70
2023/07/01 03:22:56;;;;;;;5.22;4.10;;;;;;;25.77;40.54;98879.00;4376043;32;34433;-67
2023/07/01 03:25:24;;;;;;;4.93;3.78;;;;;;;25.77;40.54;98868.06;4363223;32;33989;-69
2023/07/01 03:27:52;;;;;;;6.90;4.62;;;;;;;25.76;40.53;98877.38;4376217;32;35082;-65
2023/07/01 03:30:28;;;;;;;7.05;4.53;;;;;;;25.76;40.53;98877.38;4376081;32;34979;-63
2023/07/01 03:32:56;;;;;;;6.20;4.32;;;;;;;25.76;40.54;98885.56;4376244;32;34020;-68
2023/07/01 03:35:24;;;;;;;7.93;3.97;;;;;;;25.75;40.54;98881.16;4376174;32;33785;-68
2023/07/01 03:37:51;;;;;;;7.28;4.40;;;;;;;25.74;40.55;98874.06;4362620;32;34044;-69
2023/07/01 03:40:19;;;;;;;6.30;4.28;;;;;;;25.73;40.60;98880.59;4375916;32;34646;-67
2023/07/01 03:42:47;;;;;;;6.40;4.37;;;;;;;25.74;40.60;98887.72;4375579;32;33529;-71
2023/07/01 03:45:14;;;;;;;6.85;4.85;;;;;;;25.74;40.54;98875.94;4375882;32;33939;-71
2023/07/01 03:47:45;;;;;;;6.85;4.35;;;;;;;25.75;40.50;98878.44;4375989;32;33303;-63
2023/07/01 03:50:13;;;;;;;7.07;4.75;;;;;;;25.75;40.49;98883.09;4375989;32;34218;-63
2023/07/01 03:52:41;;;;;;;8.85;4.47;;;;;;;25.74;40.50;98890.47;4375881;32;33746;-63
2023/07/01 03:55:14;;;;;;;12.75;4.53;;;;;;;25.74;40.48;98884.12;4375811;32;33974;-63
2023/07/01 03:57:42;;;;;;;5.87;4.35;;;;;;;25.72;40.47;98881.69;4377011;32;33910;-64
2023/07/01 04:00:18;;;;;;;7.50;4.45;;;;;;;25.71;40.48;98874.56;4377817;32;34957;-63
2023/07/01 04:02:47;;;;;;;8.85;4.97;;;;;;;25.71;40.50;98877.31;4377787;32;33680;-70
2023/07/01 04:05:15;;;;;;;8.35;4.82;;;;;;;25.70;40.49;98879.22;4377823;32;33694;-63
2023/07/01 04:07:44;;;;;;;6.55;4.65;;;;;;;25.69;40.52;98876.72;4377779;32;33567;-69
2023/07/01 04:10:12;;;;;;;7.10;4.30;;;;;;;25.68;40.55;98875.91;4351936;32;35049;-64
2023/07/01 04:12:40;;;;;;;6.40;4.50;;;;;;;25.69;40.58;98871.28;4377764;32;33377;-63
2023/07/01 04:15:10;;;;;;;7.00;4.95;;;;;;;25.69;40.62;98872.13;4377721;32;33457;-63
2023/07/01 04:17:48;;;;;;;7.85;4.47;;;;;;;25.68;40.70;98875.91;4372102;32;34892;-69
2023/07/01 04:20:16;;;;;;;7.95;4.70;;;;;;;25.69;40.71;98874.00;4368914;32;34131;-71
2023/07/01 04:22:46;;;;;;;;;;;;;;;25.68;40.83;98865.00;4377719;32;33544;-69
2023/07/01 04:25:13;;;;;;;7.68;5.07;;;;;;;25.80;40.70;98861.28;4364500;32;35091;-69
2023/07/01 04:27:42;;;;;;;7.18;5.07;;;;;;;25.70;40.82;98860.09;4377737;32;34027;-71
2023/07/01 04:30:12;;;;;;;7.10;4.55;;;;;;;25.69;40.98;98866.66;4363993;32;33246;-66
2023/07/01 04:32:40;;;;;;;6.70;4.83;;;;;;;25.69;41.04;98860.34;4377583;32;33247;-64
2023/07/01 04:35:08;;;;;;;7.62;4.60;;;;;;;25.69;41.21;98863.94;4377605;32;33506;-64
2023/07/01 04:37:35;;;;;;;6.70;4.55;;;;;;;25.69;41.32;98863.94;4366948;32;33522;-64
2023/07/01 04:40:04;;;;;;;7.75;4.80;;;;;;;25.70;41.43;98864.75;4362993;32;33980;-66
2023/07/01 04:42:34;;;;;;;6.03;4.53;;;;;;;25.70;41.61;98864.75;4349202;32;34525;-63
2023/07/01 04:45:02;;;;;;;8.82;4.55;;;;;;;25.72;41.72;98873.47;4362461;32;34798;-65
2023/07/01 04:47:32;;;;;;;;;;;;;;;25.74;41.81;98865.00;4349640;32;33926;-64
2023/07/01 04:49:59;;;;;;;8.07;4.62;;;;;;;25.83;41.71;98863.47;4362577;32;35329;-64
2023/07/01 04:52:27;;;;;;;8.07;5.03;;;;;;;25.76;41.93;98854.69;4362407;32;33653;-65
2023/07/01 04:54:54;;;;;;;6.87;5.03;;;;;;;25.75;42.04;98866.69;4362450;32;34653;-63
2023/07/01 04:57:22;;;;;;;7.28;4.68;;;;;;;25.74;42.09;98863.13;4362595;32;33721;-62
2023/07/01 04:59:49;;;;;;;6.82;4.80;;;;;;;25.75;42.06;98863.94;4362382;32;33874;-63
2023/07/01 05:02:17;;;;;;;8.85;5.05;;;;;;;25.75;42.07;98864.78;4362313;32;34388;-64
2023/07/01 05:04:45;;;;;;;6.18;4.57;;;;;;;25.77;42.03;98865.34;4362406;32;33835;-63
2023/07/01 05:07:12;;;;;;;7.37;4.87;;;;;;;25.78;42.07;98855.25;4365420;32;33537;-68
2023/07/01 05:09:40;;;;;;;7.60;4.60;;;;;;;25.79;42.11;98856.91;4368554;32;34183;-71
2023/07/01 05:12:08;;;;;;;7.50;5.07;;;;;;;25.80;42.10;98859.38;4377324;32;34377;-71
2023/07/01 05:14:36;;;;;;;7.72;5.12;;;;;;;25.80;42.09;98855.81;4363901;32;33668;-66
2023/07/01 05:17:03;;;;;;;8.75;4.65;;;;;;;25.80;42.10;98856.63;4362283;32;34837;-66
2023/07/01 05:19:31;;;;;;;7.32;4.75;;;;;;;25.83;42.08;98855.25;4362339;32;35053;-67
2023/07/01 05:21:58;;;;;;;7.15;5.00;;;;;;;25.83;42.09;98855.25;4374022;32;34106;-68
2023/07/01 05:24:26;;;;;;;5.55;4.12;;;;;;;25.84;42.10;98862.41;4377181;32;33520;-70
2023/07/01 05:26:54;;;;;;;6.15;4.68;;;;;;;25.85;42.07;98859.38;4377174;32;33853;-63
2023/07/01 05:29:22;;;;;;;6.95;4.53;;;;;;;25.86;42.23;98863.75;4376888;32;34790;-71
2023/07/01 05:31:49;;;;;;;7.22;4.80;;;;;;;25.89;42.12;98868.72;4377193;32;34459;-66
2023/07/01 05:34:17;;;;;;;5.80;4.28;;;;;;;25.90;42.05;98869.53;4376923;32;34542;-73
2023/07/01 05:36:44;;;;;;;11.10;5.60;;;;;;;25.92;42.17;98873.63;4377165;32;34689;-67
2023/07/01 05:39:12;;;;;;;9.38;5.00;;;;;;;25.93;42.21;98872.56;4377086;32;34193;-62
2023/07/01 05:41:40;;;;;;;6.75;4.87;;;;;;;25.94;42.28;98874.19;4363319;32;34396;-62
2023/07/01 05:44:08;;;;;;;7.97;5.10;;;;;;;25.95;42.36;98884.03;4376898;32;33707;-62
2023/07/01 05:46:35;;;;;;;7.12;4.62;;;;;;;25.97;42.44;98877.47;4377153;32;34046;-62
2023/07/01 05:49:03;;;;;;;7.62;5.43;;;;;;;25.99;42.41;98878.06;4363423;32;34514;-65
2023/07/01 05:51:31;;;;;;;6.90;4.97;;;;;;;25.99;42.43;98875.31;4377156;32;33567;-63
2023/07/01 05:53:58;;;;;;;8.90;5.53;;;;;;;26.00;42.43;98882.41;4377317;32;34091;-64
2023/07/01 05:56:26;;;;;;;6.43;4.40;;;;;;;26.01;42.45;98875.84;4376848;32;35236;-62
2023/07/01 05:58:54;;;;;;;6.53;4.85;;;;;;;26.00;42.43;98875.03;4376969;32;33698;-62
2023/07/01 06:01:22;;;;;;;7.12;4.72;;;;;;;26.01;42.43;98873.13;4377339;32;33559;-62
2023/07/01 06:03:49;;;;;;;6.72;4.35;;;;;;;26.01;42.42;98873.13;4363305;32;33682;-62
2023/07/01 06:06:17;;;;;;;7.12;4.78;;;;;;;26.03;42.41;98879.16;4377292;32;33651;-62
2023/07/01 06:08:45;;;;;;;7.40;4.72;;;;;;;26.01;42.44;98871.22;4377251;32;33768;-62
2023/07/01 06:11:16;;;;;;;6.72;4.22;;;;;;;26.03;42.44;98868.22;4363554;32;33718;-73
2023/07/01 06:13:47;;;;;;;7.70;4.65;;;;;;;26.03;42.43;98877.25;4377149;32;33829;-62
2023/07/01 06:16:15;;;;;;;6.62;4.55;;;;;;;26.05;42.43;98882.44;4376962;32;34654;-62
2023/07/01 06:18:42;;;;;;;6.37;4.40;;;;;;;26.06;42.41;98879.44;4350964;32;33825;-62
2023/07/01 06:21:10;;;;;;;7.50;4.87;;;;;;;26.06;42.41;98882.16;4376162;32;33444;-63
2023/07/01 06:23:38;;;;;;;8.68;4.35;;;;;;;26.06;42.39;98882.16;4376766;32;33530;-62
2023/07/01 06:26:06;;;;;;;5.45;4.10;;;;;;;26.07;42.39;98885.75;4363269;32;34039;-71
2023/07/01 06:28:34;;;;;;;7.30;4.20;;;;;;;26.08;42.39;98890.13;4376852;32;34805;-62
2023/07/01 06:31:02;;;;;;;6.57;4.37;;;;;;;26.08;42.42;98890.13;4376902;32;33585;-65
2023/07/01 06:33:29;;;;;;;5.80;4.30;;;;;;;26.08;42.39;98890.13;4376537;32;33798;-63
2023/07/01 06:35:57;;;;;;;7.80;4.65;;;;;;;26.09;42.42;98886.28;4376813;32;33727;-74
2023/07/01 06:38:24;;;;;;;8.23;4.40;;;;;;;26.10;42.43;98886.00;4376748;32;33905;-71
2023/07/01 06:40:52;;;;;;;6.12;4.65;;;;;;;26.11;42.41;98890.41;4376541;32;33604;-70
2023/07/01 06:43:20;;;;;;;7.05;4.57;;;;;;;26.13;42.42;98890.16;4376581;32;34762;-64
2023/07/01 06:45:48;;;;;;;5.95;3.97;;;;;;;26.13;42.44;98881.94;4376735;32;33905;-73
2023/07/01 06:48:15;;;;;;;5.87;4.10;;;;;;;26.13;42.44;98881.94;4376562;32;34611;-63
2023/07/01 06:50:43;;;;;;;6.82;4.45;;;;;;;26.13;42.46;98877.28;4376603;32;33678;-67
2023/07/01 06:53:11;;;;;;;5.90;4.12;;;;;;;26.14;42.45;98878.13;4376658;32;33850;-74
2023/07/01 06:55:39;;;;;;;7.43;4.10;;;;;;;26.14;42.49;98873.47;4376601;32;34961;-71
2023/07/01 06:58:06;;;;;;;5.72;3.92;;;;;;;26.13;42.50;98874.56;4376700;32;33773;-62
2023/07/01 07:00:37;;;;;;;6.85;4.30;;;;;;;26.16;42.47;98870.44;4376361;32;34392;-62
2023/07/01 07:03:04;;;;;;;5.53;3.87;;;;;;;26.17;42.45;98872.13;4376452;32;34115;-74
2023/07/01 07:05:32;;;;;;;6.68;4.18;;;;;;;26.17;42.45;98859.28;4376439;32;33826;-62
2023/07/01 07:08:01;;;;;;;7.45;4.57;;;;;;;26.18;42.42;98862.81;4376417;32;34135;-73
2023/07/01 07:10:28;;;;;;;5.90;4.53;;;;;;;26.18;42.42;98860.91;4362810;32;34388;-72
2023/07/01 07:12:56;;;;;;;6.10;4.03;;;;;;;26.22;42.42;98863.13;4373226;32;34012;-72
2023/07/01 07:15:24;;;;;;;7.62;4.40;;;;;;;26.22;42.52;98863.94;4361225;32;34769;-66
2023/07/01 07:17:51;;;;;;;5.97;4.47;;;;;;;26.23;42.55;98857.37;4361333;32;33798;-73
2023/07/01 07:20:21;;;;;;;13.90;4.93;;;;;;;26.23;42.57;98853.81;4361340;32;33590;-73
2023/07/01 07:22:48;;;;;;;6.18;4.32;;;;;;;26.24;42.66;98856.28;4360974;32;34531;-73
2023/07/01 07:25:16;;;;;;;8.13;4.78;;;;;;;26.27;42.62;98854.94;4347844;32;33997;-69
2023/07/01 07:27:44;;;;;;;6.32;4.47;;;;;;;26.27;42.62;98849.47;4335795;32;34936;-64
2023/07/01 07:30:12;;;;;;;6.75;4.57;;;;;;;26.27;42.66;98846.72;4361005;32;34389;-74
2023/07/01 07:32:41;;;;;;;5.78;4.35;;;;;;;26.29;42.67;98845.34;4362070;32;34751;-72
2023/07/01 07:35:09;;;;;;;5.83;4.53;;;;;;;26.32;42.75;98850.28;4349987;32;33632;-74
2023/07/01 07:37:37;;;;;;;8.82;4.68;;;;;;;26.36;42.71;98845.13;4362810;32;34097;-69
2023/07/01 07:40:07;;;;;;;7.18;4.65;;;;;;;26.35;42.74;98844.28;4362960;32;34468;-67
2023/07/01 07:42:35;;;;;;;7.75;5.10;;;;;;;26.35;42.80;98841.56;4362640;32;34657;-67
2023/07/01 07:45:03;;;;;;;8.43;4.15;;;;;;;26.34;42.80;98834.41;4362790;32;34715;-69
2023/07/01 07:47:31;;;;;;;6.53;4.82;;;;;;;26.35;42.84;98836.09;4362900;32;34963;-68
2023/07/01 07:50:00;;;;;;;8.32;5.05;;;;;;;26.38;42.92;98829.25;4362832;32;33447;-67
2023/07/01 07:52:28;;;;;;;8.10;5.25;;;;;;;26.39;43.07;98834.47;4362836;32;34993;-67
2023/07/01 07:54:56;;;;;;;7.55;5.07;;;;;;;26.42;43.11;98835.81;4362744;32;34135;-67
2023/07/01 07:57:23;;;;;;;6.45;5.65;;;;;;;26.45;43.14;98835.31;4362746;32;34746;-69
2023/07/01 07:59:52;;;;;;;10.13;5.45;;;;;;;26.46;43.19;98831.50;4362886;32;33456;-69
2023/07/01 08:02:19;;;;;;;7.60;4.87;;;;;;;26.48;43.27;98823.00;4363115;32;33983;-69
2023/07/01 08:04:47;;;;;;;7.28;5.18;;;;;;;26.50;43.32;98821.66;4362656;32;34746;-69
2023/07/01 08:07:15;;;;;;;7.35;5.18;;;;;;;26.54;43.54;98822.75;4349756;32;34320;-69
2023/07/01 08:09:43;;;;;;;7.65;5.68;;;;;;;26.54;43.44;98820.03;4362804;32;34338;-69
2023/07/01 08:12:11;;;;;;;8.13;5.95;;;;;;;26.57;43.46;98813.19;4365940;32;34390;-69
2023/07/01 08:14:38;;;;;;;7.70;6.10;;;;;;;26.58;43.51;98815.66;4376044;32;34118;-70
2023/07/01 08:17:06;;;;;;;9.10;5.55;;;;;;;26.60;43.41;98805.25;4376953;32;34164;-69
2023/07/01 08:19:34;;;;;;;9.85;6.30;;;;;;;26.63;43.39;98807.47;4376709;32;34399;-70
2023/07/01 08:22:02;;;;;;;10.30;5.93;;;;;;;26.65;43.41;98809.91;4376826;32;33907;-72
2023/07/01 08:24:29;;;;;;;8.75;5.85;;;;;;;26.67;43.35;98805.81;4376657;32;33738;-69
2023/07/01 08:26:59;;;;;;;10.52;6.35;;;;;;;26.68;43.33;98812.94;4376783;32;34360;-69
2023/07/01 08:29:27;;;;;;;9.15;6.35;;;;;;;26.69;43.35;98803.63;4376149;32;33502;-69
2023/07/01 08:31:54;;;;;;;8.52;5.95;;;;;;;26.73;43.30;98803.91;4376852;32;34712;-70
2023/07/01 08:34:22;;;;;;;10.15;6.35;;;;;;;26.73;43.29;98803.09;4376283;32;34034;-67
2023/07/01 08:36:50;;;;;;;10.80;5.57;;;;;;;26.76;43.31;98805.25;4377085;32;33988;-75
2023/07/01 08:39:17;;;;;;;8.10;5.55;;;;;;;26.77;43.26;98801.47;4363121;32;33235;-72
2023/07/01 08:41:54;;;;;;;8.80;5.75;;;;;;;26.76;43.16;98802.53;4359380;32;34064;-62
2023/07/01 08:44:22;;;;;;;8.38;5.80;;;;;;;26.76;43.08;98797.06;4350377;32;35354;-71
2023/07/01 08:46:52;;;;;;;;;;;;;;;26.74;43.04;98797.34;4363525;32;35056;-72
2023/07/01 08:49:22;;;;;;;9.57;6.07;;;;;;;26.84;42.82;98797.34;4375533;32;34065;-73
2023/07/01 08:51:53;;;;;;;7.47;5.30;;;;;;;26.77;42.92;98798.72;4356902;32;34888;-73
2023/07/01 08:54:21;;;;;;;10.02;6.35;;;;;;;26.75;42.91;98801.72;4368523;32;34787;-71
2023/07/01 08:56:49;;;;;;;8.82;5.70;;;;;;;26.74;42.87;98799.25;4359042;32;34069;-73
2023/07/01 08:59:17;;;;;;;7.32;5.22;;;;;;;26.74;42.84;98800.06;4370454;32;33476;-74
2023/07/01 09:01:45;;;;;;;11.35;5.15;;;;;;;26.74;42.81;98807.47;4377171;32;33870;-73
2023/07/01 09:04:12;;;;;;;9.57;5.45;;;;;;;26.71;42.77;98804.16;4360727;32;34046;-71
2023/07/01 09:06:40;;;;;;;8.13;5.32;;;;;;;26.69;42.74;98800.88;4352907;32;35010;-73
2023/07/01 09:09:08;;;;;;;12.05;6.00;;;;;;;26.71;42.71;98797.88;4373772;32;33326;-73
2023/07/01 09:11:35;;;;;;;7.70;5.28;;;;;;;26.69;42.68;98792.69;4374793;32;33917;-73
2023/07/01 09:14:03;;;;;;;10.10;5.43;;;;;;;26.70;42.65;98793.50;4368772;32;34679;-67
2023/07/01 09:16:34;;;;;;;8.75;5.57;;;;;;;26.68;42.62;98793.78;4362428;32;34753;-74
2023/07/01 09:19:06;;;;;;;8.23;5.75;;;;;;;26.68;42.60;98801.16;4377390;32;33558;-74
2023/07/01 09:21:34;;;;;;;9.88;5.60;;;;;;;26.68;42.58;98802.00;4376231;32;34865;-72
2023/07/01 09:24:05;;;;;;;8.85;5.70;;;;;;;26.68;42.54;98799.25;4376887;32;33716;-73
2023/07/01 09:26:32;;;;;;;9.68;5.72;;;;;;;26.67;42.53;98797.63;4363280;32;34821;-73
2023/07/01 09:29:07;;;;;;;7.43;5.37;;;;;;;26.68;42.51;98801.16;4375464;32;34537;-63
2023/07/01 09:31:47;;;;;;;10.13;5.62;;;;;;;26.66;42.50;98793.22;4362995;32;34722;-63
2023/07/01 09:34:21;;;;;;;8.82;5.37;;;;;;;26.68;42.46;98790.22;4376829;32;34815;-73
2023/07/01 09:36:49;;;;;;;12.00;5.72;;;;;;;26.66;42.47;98795.94;4363660;32;34088;-66
2023/07/01 09:39:32;;;;;;;7.18;4.97;;;;;;;26.65;42.44;98788.84;4375927;32;33569;-63
2023/07/01 09:42:04;;;;;;;8.35;5.10;;;;;;;26.67;42.42;98792.16;4366123;32;33917;-73
2023/07/01 09:44:35;;;;;;;7.80;5.12;;;;;;;26.65;42.42;98788.84;4363519;32;34071;-71
2023/07/01 09:47:04;;;;;;;8.80;5.45;;;;;;;26.64;42.42;98795.41;4375188;32;34630;-72
2023/07/01 09:49:37;;;;;;;7.20;5.30;;;;;;;26.64;42.40;98789.94;4362195;32;33566;-64
2023/07/01 09:52:05;;;;;;;8.40;5.15;;;;;;;26.66;42.38;98790.47;4375828;32;34678;-74
2023/07/01 09:54:32;;;;;;;7.15;4.85;;;;;;;26.66;42.36;98795.13;4361751;32;33102;-66
2023/07/01 09:57:00;;;;;;;6.85;5.15;;;;;;;26.64;42.36;98789.94;4374088;32;34814;-66
2023/07/01 09:59:28;;;;;;;7.95;5.37;;;;;;;26.64;42.35;98783.66;4375754;32;34307;-64
2023/07/01 10:01:57;;;;;;;7.37;4.75;;;;;;;26.66;42.33;98784.19;4375245;32;34755;-65
2023/07/01 10:04:28;;;;;;;8.73;5.47;;;;;;;26.65;42.31;98785.28;4374402;32;33479;-68
2023/07/01 10:06:56;;;;;;;7.75;4.97;;;;;;;26.65;42.29;98783.38;4350995;32;34812;-74
2023/07/01 10:09:26;;;;;;;6.07;4.62;;;;;;;26.64;42.27;98773.53;4357391;32;34168;-63
2023/07/01 10:11:56;;;;;;;7.53;5.05;;;;;;;26.63;42.28;98777.38;4361705;32;33832;-67
2023/07/01 10:14:25;;;;;;;7.93;5.07;;;;;;;26.64;42.26;98772.72;4349070;32;33922;-72
2023/07/01 10:16:53;;;;;;;8.38;5.47;;;;;;;26.63;42.22;98766.41;4349432;32;34060;-67
2023/07/01 10:19:31;;;;;;;8.00;5.12;;;;;;;26.64;42.22;98778.19;4363271;32;34312;-64
2023/07/01 10:22:29;;;;;;;7.12;5.03;;;;;;;26.64;42.23;98768.06;4375460;32;34810;-73
2023/07/01 10:25:03;;;;;;;8.02;5.03;;;;;;;26.65;42.18;98768.88;4375291;32;33936;-73
2023/07/01 10:27:41;;;;;;;7.97;5.53;;;;;;;26.62;42.23;98774.87;4375908;32;34897;-74
2023/07/01 10:30:12;;;;;;;7.37;4.70;;;;;;;26.63;42.19;98771.88;4376017;32;33830;-72
2023/07/01 10:32:40;;;;;;;7.55;5.07;;;;;;;26.62;42.22;98772.16;4362212;32;34012;-72
2023/07/01 10:35:11;;;;;;;6.28;4.97;;;;;;;26.62;42.19;98769.41;4376696;32;34883;-70
2023/07/01 10:37:42;;;;;;;6.43;4.55;;;;;;;26.62;42.21;98770.22;4374020;32;33736;-72
2023/07/01 10:40:28;;;;;;;6.20;4.53;;;;;;;26.63;42.18;98765.59;4375344;32;33181;-66
2023/07/01 10:43:14;;;;;;;6.85;5.12;;;;;;;26.65;42.14;98763.41;4375916;32;33936;-68
2023/07/01 10:45:41;;;;;;;7.60;4.60;;;;;;;26.64;42.13;98770.78;4376736;32;34146;-67
2023/07/01 10:48:13;;;;;;;6.47;4.90;;;;;;;26.61;42.16;98765.84;4375824;32;34114;-62
2023/07/01 10:51:06;;;;;;;6.25;4.95;;;;;;;26.60;42.17;98766.94;4375965;32;33325;-67
2023/07/01 10:54:03;;;;;;;7.57;4.68;;;;;;;26.63;42.13;98771.06;4376921;32;33986;-71
2023/07/01 10:56:34;;;;;;;6.82;5.00;;;;;;;26.63;42.11;98766.41;4373847;32;33981;-70
2023/07/01 10:59:21;;;;;;;8.25;4.97;;;;;;;26.61;42.12;98774.06;4348141;32;33995;-62
2023/07/01 11:01:50;;;;;;;7.43;4.93;;;;;;;26.63;42.09;98771.88;4358689;32;33751;-74
2023/07/01 11:04:19;;;;;;;6.35;4.55;;;;;;;26.61;42.12;98773.25;4375745;32;34048;-64
2023/07/01 11:06:51;;;;;;;7.65;4.78;;;;;;;26.62;42.09;98774.87;4373617;32;33395;-70
2023/07/01 11:09:29;;;;;;;6.95;4.82;;;;;;;26.61;42.12;98773.25;4362248;32;33687;-70
2023/07/01 11:11:57;;;;;;;6.90;4.90;;;;;;;26.63;42.08;98768.34;4362023;32;33684;-68
2023/07/01 11:14:35;;;;;;;6.80;4.95;;;;;;;26.61;42.07;98765.03;4374850;32;33861;-68
2023/07/01 11:17:09;;;;;;;5.78;4.43;;;;;;;26.62;42.07;98769.41;4374305;32;33666;-65
2023/07/01 11:19:37;;;;;;;5.75;4.60;;;;;;;26.60;42.07;98761.47;4376151;32;34425;-69
2023/07/01 11:22:05;;;;;;;6.80;4.72;;;;;;;26.61;42.07;98763.12;4374406;32;34419;-69
2023/07/01 11:24:34;;;;;;;6.40;4.68;;;;;;;26.61;42.05;98759.56;4360089;32;33299;-65
2023/07/01 11:27:05;;;;;;;7.22;4.50;;;;;;;26.61;42.04;98763.12;4372378;32;34404;-66
2023/07/01 11:29:32;;;;;;;;;;;;;;;26.60;42.06;98769.69;4361533;32;34167;-67
2023/07/01 11:32:01;;;;;;;5.82;4.62;;;;;;;26.72;41.97;98772.19;4374349;32;34265;-67
2023/07/01 11:34:29;;;;;;;7.00;4.65;;;;;;;26.63;42.33;98760.94;4359639;32;35309;-68
2023/07/01 11:36:58;;;;;;;6.57;5.05;;;;;;;26.62;42.47;98756.53;4347415;32;34038;-67
2023/07/01 11:39:26;;;;;;;6.72;4.97;;;;;;;26.63;42.64;98757.38;4360142;32;34756;-68
2023/07/01 11:41:55;;;;;;;7.65;5.32;;;;;;;26.64;42.74;98745.34;4360527;32;33332;-67
2023/07/01 11:44:24;;;;;;;9.57;5.72;;;;;;;26.65;42.90;98746.97;4374162;32;34623;-68